createdAt,value
2023-02-19T00:01:35.231Z,5.38
2023-02-19T00:04:02.822Z,5.38
2023-02-19T00:06:30.366Z,5.38
2023-02-19T00:08:57.939Z,5.34
2023-02-19T00:11:25.539Z,5.14
2023-02-19T00:13:53.200Z,4.92
2023-02-19T00:16:20.693Z,4.77
2023-02-19T00:18:48.263Z,4.72
2023-02-19T00:21:15.786Z,4.71
2023-02-19T00:23:43.264Z,4.67
2023-02-19T00:26:18.250Z,4.67
2023-02-19T00:28:46.582Z,4.64
2023-02-19T00:31:14.485Z,4.63
2023-02-19T00:33:42.223Z,4.57
2023-02-19T00:36:09.778Z,4.54
2023-02-19T00:38:37.746Z,4.55
2023-02-19T00:41:19.087Z,4.52
2023-02-19T00:43:46.794Z,4.46
2023-02-19T00:46:14.332Z,4.45
2023-02-19T00:48:43.122Z,4.47
2023-02-19T00:51:11.027Z,4.51
2023-02-19T00:53:38.969Z,4.45
2023-02-19T00:56:06.755Z,4.41
2023-02-19T00:58:34.622Z,4.38
2023-02-19T01:01:02.168Z,4.34
2023-02-19T01:03:29.741Z,4.31
2023-02-19T01:05:57.407Z,4.28
2023-02-19T01:08:25.021Z,4.24
2023-02-19T01:10:52.538Z,4.19
2023-02-19T01:13:20.345Z,4.16
2023-02-19T01:15:47.863Z,4.14
2023-02-19T01:18:15.439Z,4.13
2023-02-19T01:20:42.946Z,4.11
2023-02-19T01:23:10.441Z,4.09
2023-02-19T01:25:37.899Z,4.06
2023-02-19T01:28:05.410Z,4.05
2023-02-19T01:30:33.015Z,4.03
2023-02-19T01:33:00.570Z,4.01
2023-02-19T01:35:28.301Z,3.97
2023-02-19T01:37:55.783Z,3.94
2023-02-19T01:40:23.288Z,3.93
2023-02-19T01:42:50.774Z,3.92
2023-02-19T01:45:18.707Z,3.90
2023-02-19T01:47:46.172Z,3.89
2023-02-19T01:50:13.669Z,3.89
2023-02-19T01:52:41.170Z,3.87
2023-02-19T01:55:08.683Z,3.86
2023-02-19T01:57:36.305Z,3.85
2023-02-19T02:00:04.163Z,3.82
2023-02-19T02:02:31.699Z,3.81
2023-02-19T02:05:00.238Z,3.82
2023-02-19T02:07:46.473Z,3.81
2023-02-19T02:10:20.301Z,3.84
2023-02-19T02:12:47.794Z,3.84
2023-02-19T02:15:16.242Z,3.85
2023-02-19T02:17:43.985Z,3.86
2023-02-19T02:20:11.469Z,3.85
2023-02-19T02:22:39.061Z,3.84
2023-02-19T02:25:06.655Z,3.86
2023-02-19T02:27:34.222Z,3.84
2023-02-19T02:30:01.811Z,3.84
2023-02-19T02:32:29.562Z,3.85
2023-02-19T02:34:57.196Z,3.84
2023-02-19T02:37:24.831Z,3.84
2023-02-19T02:39:52.556Z,3.85
2023-02-19T02:42:29.361Z,3.85
2023-02-19T02:45:15.766Z,3.84
2023-02-19T02:47:44.837Z,3.88
2023-02-19T02:50:12.449Z,3.89
2023-02-19T02:52:58.953Z,3.91
2023-02-19T02:55:26.485Z,3.92
2023-02-19T02:57:54.074Z,3.93
2023-02-19T03:00:21.893Z,3.90
2023-02-19T03:02:49.403Z,3.87
2023-02-19T03:05:36.124Z,3.83
2023-02-19T03:08:03.616Z,3.79
2023-02-19T03:10:31.072Z,3.75
2023-02-19T03:13:17.704Z,3.74
2023-02-19T03:16:04.102Z,3.74
2023-02-19T03:18:50.673Z,3.75
2023-02-19T03:21:18.193Z,3.77
2023-02-19T03:24:04.397Z,3.76
2023-02-19T03:26:31.958Z,3.74
2023-02-19T03:29:18.251Z,3.70
2023-02-19T03:31:45.921Z,3.65
2023-02-19T03:34:14.431Z,3.62
2023-02-19T03:36:42.333Z,3.60
2023-02-19T03:39:11.064Z,3.60
2023-02-19T03:41:38.620Z,3.63
2023-02-19T03:44:06.235Z,3.63
2023-02-19T03:46:33.729Z,3.65
2023-02-19T03:49:01.283Z,3.64
2023-02-19T03:51:28.929Z,3.63
2023-02-19T03:53:56.453Z,3.65
2023-02-19T03:56:24.229Z,3.63
2023-02-19T03:58:51.853Z,3.61
2023-02-19T04:01:19.510Z,3.65
2023-02-19T04:03:47.007Z,3.68
2023-02-19T04:06:14.632Z,3.72
2023-02-19T04:08:42.089Z,3.75
2023-02-19T04:11:09.945Z,3.80
2023-02-19T04:13:37.708Z,3.83
2023-02-19T04:16:05.278Z,3.89
2023-02-19T04:18:32.801Z,3.96
2023-02-19T04:21:00.442Z,4.08
2023-02-19T04:23:27.928Z,4.15
2023-02-19T04:25:55.530Z,4.20
2023-02-19T04:28:23.031Z,4.23
2023-02-19T04:30:50.609Z,4.25
2023-02-19T04:33:18.233Z,4.33
2023-02-19T04:35:45.791Z,4.42
2023-02-19T04:38:14.456Z,4.44
2023-02-19T04:40:44.922Z,4.45
2023-02-19T04:43:12.489Z,4.50
2023-02-19T04:45:40.014Z,4.55
2023-02-19T04:48:07.612Z,4.60
2023-02-19T04:50:35.211Z,4.65
2023-02-19T04:53:02.720Z,4.67
2023-02-19T04:55:30.256Z,4.69
2023-02-19T04:57:57.751Z,4.73
2023-02-19T05:00:25.419Z,4.75
2023-02-19T05:02:53.103Z,4.78
2023-02-19T05:05:20.669Z,4.80
2023-02-19T05:07:48.175Z,4.81
2023-02-19T05:10:15.656Z,4.83
2023-02-19T05:12:43.174Z,4.86
2023-02-19T05:15:10.721Z,4.86
2023-02-19T05:17:38.253Z,4.87
2023-02-19T05:20:05.826Z,4.89
2023-02-19T05:22:33.298Z,4.91
2023-02-19T05:25:01.246Z,4.92
2023-02-19T05:27:28.762Z,4.93
2023-02-19T05:29:56.229Z,4.93
2023-02-19T05:32:23.844Z,4.96
2023-02-19T05:34:51.564Z,5.01
2023-02-19T05:37:19.191Z,5.06
2023-02-19T05:39:46.751Z,5.09
2023-02-19T05:42:14.753Z,5.11
2023-02-19T05:44:42.291Z,5.15
2023-02-19T05:47:09.958Z,5.18
2023-02-19T05:49:37.675Z,5.19
2023-02-19T05:52:05.278Z,5.20
2023-02-19T05:54:32.887Z,5.19
2023-02-19T05:57:00.694Z,5.20
2023-02-19T05:59:31.005Z,5.23
2023-02-19T06:01:58.712Z,5.23
2023-02-19T06:04:26.370Z,5.21
2023-02-19T06:06:54.363Z,5.20
2023-02-19T06:09:21.895Z,5.18
2023-02-19T06:11:49.475Z,5.19
2023-02-19T06:14:17.027Z,5.23
2023-02-19T06:16:44.538Z,5.24
2023-02-19T06:19:12.096Z,5.25
2023-02-19T06:21:39.704Z,5.26
2023-02-19T06:24:07.302Z,5.28
2023-02-19T06:26:34.968Z,5.28
2023-02-19T06:29:02.460Z,5.27
2023-02-19T06:31:30.133Z,5.27
2023-02-19T06:33:58.134Z,5.28
2023-02-19T06:36:25.754Z,5.30
2023-02-19T06:38:53.391Z,5.33
2023-02-19T06:41:21.059Z,5.33
2023-02-19T06:43:48.691Z,5.33
2023-02-19T06:46:16.324Z,5.34
2023-02-19T06:48:43.917Z,5.38
2023-02-19T06:51:11.733Z,5.40
2023-02-19T06:53:39.371Z,5.43
2023-02-19T06:56:06.959Z,5.47
2023-02-19T06:58:34.448Z,5.51
2023-02-19T07:01:01.965Z,5.54
2023-02-19T07:03:29.809Z,5.56
2023-02-19T07:05:58.373Z,5.58
2023-02-19T07:08:27.937Z,5.60
2023-02-19T07:10:56.969Z,5.62
2023-02-19T07:13:24.691Z,5.63
2023-02-19T07:15:52.507Z,5.65
2023-02-19T07:18:20.232Z,5.64
2023-02-19T07:20:47.740Z,5.64
2023-02-19T07:23:17.363Z,5.66
2023-02-19T07:25:44.953Z,5.68
2023-02-19T07:28:12.459Z,5.68
2023-02-19T07:30:39.979Z,5.68
2023-02-19T07:33:10.099Z,5.68
2023-02-19T07:35:38.072Z,5.67
2023-02-19T07:38:05.698Z,5.66
2023-02-19T07:40:33.243Z,5.65
2023-02-19T07:43:00.899Z,5.66
2023-02-19T07:45:28.510Z,5.69
2023-02-19T07:47:57.572Z,5.75
2023-02-19T07:50:25.074Z,5.77
2023-02-19T07:52:52.748Z,5.80
2023-02-19T07:55:20.436Z,5.82
2023-02-19T07:57:48.021Z,5.84
2023-02-19T08:00:15.637Z,5.85
2023-02-19T08:03:01.699Z,5.84
2023-02-19T08:05:30.471Z,5.80
2023-02-19T08:07:58.182Z,5.76
2023-02-19T08:10:44.600Z,5.70
2023-02-19T08:13:25.275Z,5.64
2023-02-19T08:15:53.008Z,5.58
2023-02-19T08:18:20.592Z,5.51
2023-02-19T08:20:48.589Z,5.47
2023-02-19T08:23:16.313Z,5.43
2023-02-19T08:25:45.987Z,5.39
2023-02-19T08:28:13.490Z,5.37
2023-02-19T08:30:41.282Z,5.35
2023-02-19T08:33:08.869Z,5.34
2023-02-19T08:35:37.046Z,5.32
2023-02-19T08:38:04.655Z,5.28
2023-02-19T08:40:32.222Z,5.22
2023-02-19T08:42:59.805Z,5.16
2023-02-19T08:45:27.390Z,5.13
2023-02-19T08:47:54.899Z,5.11
2023-02-19T08:50:22.449Z,5.08
2023-02-19T08:52:50.035Z,5.04
2023-02-19T08:55:17.949Z,4.99
2023-02-19T08:57:45.667Z,4.97
2023-02-19T09:00:13.241Z,4.94
2023-02-19T09:02:40.838Z,4.92
2023-02-19T09:05:08.487Z,4.97
2023-02-19T09:07:35.999Z,5.04
2023-02-19T09:10:03.784Z,4.99
2023-02-19T09:12:31.339Z,4.96
2023-02-19T09:14:58.981Z,4.95
2023-02-19T09:17:26.450Z,4.93
2023-02-19T09:19:54.173Z,4.91
2023-02-19T09:22:21.815Z,4.88
2023-02-19T09:24:49.573Z,4.84
2023-02-19T09:27:17.142Z,4.80
2023-02-19T09:29:44.668Z,4.78
2023-02-19T09:32:12.252Z,4.76
2023-02-19T09:34:39.843Z,4.78
2023-02-19T09:37:07.835Z,4.80
2023-02-19T09:39:35.449Z,4.81
2023-02-19T09:42:02.910Z,4.80
2023-02-19T09:44:30.946Z,4.79
2023-02-19T09:46:58.508Z,4.79
2023-02-19T09:49:26.121Z,4.82
2023-02-19T09:51:53.847Z,4.85
2023-02-19T09:54:21.821Z,4.89
2023-02-19T09:56:52.403Z,4.94
2023-02-19T09:59:37.066Z,4.93
2023-02-19T10:02:04.656Z,4.92
2023-02-19T10:04:32.199Z,4.95
2023-02-19T10:07:03.560Z,4.95
2023-02-19T10:09:31.191Z,4.92
2023-02-19T10:11:59.064Z,4.91
2023-02-19T10:14:26.643Z,4.94
2023-02-19T10:16:54.289Z,4.90
2023-02-19T10:19:21.799Z,4.87
2023-02-19T10:21:49.536Z,4.91
2023-02-19T10:24:17.086Z,4.86
2023-02-19T10:26:44.621Z,4.95
2023-02-19T10:29:12.428Z,5.23
2023-02-19T10:31:40.039Z,5.11
2023-02-19T10:34:07.936Z,4.92
2023-02-19T10:36:35.827Z,4.77
2023-02-19T10:39:03.489Z,4.68
2023-02-19T10:41:31.062Z,4.61
2023-02-19T10:43:58.640Z,4.57
2023-02-19T10:46:27.495Z,4.55
2023-02-19T10:48:55.173Z,4.55
2023-02-19T10:51:23.032Z,4.54
2023-02-19T10:53:50.543Z,4.52
2023-02-19T10:56:18.167Z,4.51
2023-02-19T10:58:47.415Z,4.50
2023-02-19T11:01:15.123Z,4.46
2023-02-19T11:03:42.738Z,4.42
2023-02-19T11:06:10.626Z,4.41
2023-02-19T11:08:38.259Z,4.43
2023-02-19T11:11:06.006Z,4.43
2023-02-19T11:13:37.929Z,4.44
2023-02-19T11:16:05.605Z,4.49
2023-02-19T11:18:33.414Z,4.51
2023-02-19T11:21:00.981Z,4.53
2023-02-19T11:23:28.853Z,4.56
2023-02-19T11:25:57.394Z,4.59
2023-02-19T11:28:25.313Z,4.58
2023-02-19T11:30:52.946Z,4.59
2023-02-19T11:33:20.438Z,4.57
2023-02-19T11:35:48.306Z,4.56
2023-02-19T11:38:15.810Z,4.55
2023-02-19T11:40:43.482Z,4.56
2023-02-19T11:43:11.105Z,4.58
2023-02-19T11:45:38.878Z,4.58
2023-02-19T11:48:06.368Z,4.59
2023-02-19T11:50:33.979Z,4.60
2023-02-19T11:53:01.678Z,4.62
2023-02-19T11:55:29.208Z,4.60
2023-02-19T11:57:56.921Z,4.52
2023-02-19T12:00:24.991Z,4.47
2023-02-19T12:02:54.201Z,4.42
2023-02-19T12:05:23.075Z,4.38
2023-02-19T12:07:50.669Z,4.37
2023-02-19T12:10:18.197Z,4.38
2023-02-19T12:12:45.989Z,4.40
2023-02-19T12:15:13.731Z,4.43
2023-02-19T12:17:41.331Z,4.45
2023-02-19T12:20:09.769Z,4.45
2023-02-19T12:22:38.566Z,4.47
2023-02-19T12:25:06.107Z,4.51
2023-02-19T12:27:33.862Z,4.67
2023-02-19T12:30:01.696Z,4.70
2023-02-19T12:32:29.322Z,4.71
2023-02-19T12:34:56.956Z,4.68
2023-02-19T12:37:24.613Z,4.70
2023-02-19T12:39:52.103Z,4.71
2023-02-19T12:42:19.756Z,4.72
2023-02-19T12:44:47.519Z,4.72
2023-02-19T12:47:15.049Z,4.73
2023-02-19T12:49:42.566Z,4.72
2023-02-19T12:52:10.329Z,4.72
2023-02-19T12:54:38.169Z,4.70
2023-02-19T12:57:06.026Z,4.68
2023-02-19T12:59:33.537Z,4.67
2023-02-19T13:02:01.125Z,4.66
2023-02-19T13:04:28.777Z,4.65
2023-02-19T13:06:56.236Z,4.67
2023-02-19T13:09:23.677Z,4.70
2023-02-19T13:11:51.297Z,4.69
2023-02-19T13:14:18.910Z,4.69
2023-02-19T13:16:46.639Z,4.69
2023-02-19T13:19:15.274Z,4.69
2023-02-19T13:22:01.575Z,4.68
2023-02-19T13:24:29.167Z,4.66
2023-02-19T13:26:56.714Z,4.66
2023-02-19T13:29:24.233Z,4.67
2023-02-19T13:31:51.887Z,4.67
2023-02-19T13:34:19.616Z,4.63
2023-02-19T13:36:48.775Z,4.59
2023-02-19T13:39:16.462Z,4.59
2023-02-19T13:41:43.952Z,4.60
2023-02-19T13:44:11.471Z,4.61
2023-02-19T13:46:39.043Z,4.61
2023-02-19T13:49:06.523Z,4.61
2023-02-19T13:51:34.043Z,4.61
2023-02-19T13:54:01.906Z,4.58
2023-02-19T13:56:29.374Z,4.53
2023-02-19T13:58:57.144Z,4.47
2023-02-19T14:01:24.770Z,4.46
2023-02-19T14:03:52.394Z,4.43
2023-02-19T14:06:19.948Z,4.35
2023-02-19T14:08:48.301Z,4.27
2023-02-19T14:11:16.269Z,4.12
2023-02-19T14:13:43.761Z,3.95
2023-02-19T14:16:11.487Z,3.80
2023-02-19T14:18:39.454Z,3.65
2023-02-19T14:21:06.987Z,3.53
2023-02-19T14:23:34.674Z,3.43
2023-02-19T14:26:04.336Z,3.33
2023-02-19T14:28:33.524Z,3.23
2023-02-19T14:31:01.238Z,3.14
2023-02-19T14:33:28.901Z,3.05
2023-02-19T14:35:56.719Z,2.98
2023-02-19T14:38:24.601Z,2.91
2023-02-19T14:40:53.252Z,2.86
2023-02-19T14:43:20.832Z,2.82
2023-02-19T14:45:48.372Z,2.79
2023-02-19T14:48:15.932Z,2.79
2023-02-19T14:50:43.632Z,2.80
2023-02-19T14:53:11.266Z,2.80
2023-02-19T14:55:38.720Z,2.81
2023-02-19T14:58:06.188Z,2.79
2023-02-19T15:00:33.917Z,2.76
2023-02-19T15:03:02.735Z,2.74
2023-02-19T15:05:30.368Z,2.69
2023-02-19T15:07:58.002Z,2.65
2023-02-19T15:10:25.645Z,2.62
2023-02-19T15:12:53.247Z,2.61
2023-02-19T15:15:20.906Z,2.56
2023-02-19T15:17:48.464Z,2.50
2023-02-19T15:20:16.415Z,2.42
2023-02-19T15:22:44.843Z,2.31
2023-02-19T15:25:12.610Z,2.20
2023-02-19T15:27:40.397Z,2.12
2023-02-19T15:30:08.323Z,2.01
2023-02-19T15:32:36.134Z,1.91
2023-02-19T15:35:03.829Z,1.80
2023-02-19T15:37:31.423Z,1.68
2023-02-19T15:39:58.905Z,1.54
2023-02-19T15:42:26.480Z,1.45
2023-02-19T15:44:54.170Z,1.38
2023-02-19T15:47:21.916Z,1.23
2023-02-19T15:49:49.725Z,1.11
2023-02-19T15:52:17.316Z,0.99
2023-02-19T15:54:45.046Z,0.89
2023-02-19T15:57:13.965Z,0.79
2023-02-19T15:59:41.858Z,0.74
2023-02-19T16:02:09.340Z,0.74
2023-02-19T16:04:37.104Z,0.73
2023-02-19T16:07:04.785Z,0.74
2023-02-19T16:09:32.712Z,0.75
2023-02-19T16:12:01.229Z,0.76
2023-02-19T16:14:31.901Z,0.75
2023-02-19T16:16:59.923Z,0.73
2023-02-19T16:19:28.548Z,0.69
2023-02-19T16:21:56.351Z,0.66
2023-02-19T16:24:24.009Z,0.64
2023-02-19T16:26:51.958Z,0.68
2023-02-19T16:29:19.697Z,0.66
2023-02-19T16:31:47.325Z,0.68
2023-02-19T16:34:14.915Z,0.71
2023-02-19T16:36:43.638Z,0.73
2023-02-19T16:39:12.985Z,0.77
2023-02-19T16:41:40.453Z,0.79
2023-02-19T16:44:08.072Z,0.80
2023-02-19T16:46:35.764Z,0.83
2023-02-19T16:49:03.448Z,0.89
2023-02-19T16:51:31.062Z,0.94
2023-02-19T16:53:58.835Z,0.96
2023-02-19T16:56:26.315Z,0.95
2023-02-19T16:58:54.054Z,0.96
2023-02-19T17:01:21.584Z,0.99
2023-02-19T17:03:52.234Z,1.01
2023-02-19T17:06:20.036Z,1.03
2023-02-19T17:08:47.543Z,1.03
2023-02-19T17:11:15.024Z,1.00
2023-02-19T17:13:42.551Z,0.97
2023-02-19T17:16:11.003Z,0.96
2023-02-19T17:18:38.538Z,0.95
2023-02-19T17:21:06.436Z,0.90
2023-02-19T17:23:34.257Z,0.86
2023-02-19T17:26:01.816Z,0.83
2023-02-19T17:28:29.412Z,0.84
2023-02-19T17:30:56.876Z,0.84
2023-02-19T17:33:24.502Z,0.88
2023-02-19T17:35:52.098Z,0.90
2023-02-19T17:38:19.720Z,0.92
2023-02-19T17:40:48.796Z,0.93
2023-02-19T17:43:16.477Z,0.92
2023-02-19T17:45:44.075Z,0.92
2023-02-19T17:48:11.671Z,0.92
2023-02-19T17:50:39.383Z,0.93
2023-02-19T17:53:07.120Z,0.94
2023-02-19T17:55:34.737Z,0.94
2023-02-19T17:58:02.455Z,0.93
2023-02-19T18:00:31.643Z,0.91
2023-02-19T18:02:59.207Z,0.96
2023-02-19T18:05:27.137Z,0.96
2023-02-19T18:07:54.636Z,0.92
2023-02-19T18:10:23.364Z,0.86
2023-02-19T18:12:50.886Z,0.84
2023-02-19T18:15:18.392Z,0.84
2023-02-19T18:17:46.826Z,0.83
2023-02-19T18:20:14.716Z,0.81
2023-02-19T18:22:43.295Z,0.78
2023-02-19T18:25:11.247Z,0.77
2023-02-19T18:27:39.036Z,0.74
2023-02-19T18:30:06.572Z,0.69
2023-02-19T18:32:34.114Z,0.64
2023-02-19T18:35:02.000Z,0.60
2023-02-19T18:37:31.330Z,0.59
2023-02-19T18:39:59.213Z,0.61
2023-02-19T18:42:27.064Z,0.63
2023-02-19T18:44:54.682Z,0.64
2023-02-19T18:47:22.459Z,0.62
2023-02-19T18:49:50.025Z,0.61
2023-02-19T18:52:20.307Z,0.61
2023-02-19T18:54:48.379Z,0.62
2023-02-19T18:57:15.985Z,0.61
2023-02-19T18:59:43.564Z,0.60
2023-02-19T19:02:11.300Z,0.60
2023-02-19T19:04:39.008Z,0.60
2023-02-19T19:07:06.513Z,0.59
2023-02-19T19:09:35.553Z,0.58
2023-02-19T19:12:03.120Z,0.58
2023-02-19T19:14:30.688Z,0.59
2023-02-19T19:16:58.164Z,0.60
2023-02-19T19:19:25.733Z,0.62
2023-02-19T19:21:53.515Z,0.62
2023-02-19T19:24:21.131Z,0.63
2023-02-19T19:26:48.846Z,0.62
2023-02-19T19:29:17.241Z,0.61
2023-02-19T19:31:44.811Z,0.60
2023-02-19T19:34:12.513Z,0.60
2023-02-19T19:36:40.143Z,0.59
2023-02-19T19:39:08.240Z,0.57
2023-02-19T19:41:35.883Z,0.54
2023-02-19T19:44:03.688Z,0.56
2023-02-19T19:46:31.438Z,0.56
2023-02-19T19:48:59.123Z,0.54
2023-02-19T19:51:27.361Z,0.54
2023-02-19T19:53:55.075Z,0.52
2023-02-19T19:56:23.060Z,0.52
2023-02-19T19:58:50.599Z,0.52
2023-02-19T20:01:21.288Z,0.53
2023-02-19T20:03:49.296Z,0.52
2023-02-19T20:06:17.079Z,0.49
2023-02-19T20:08:44.619Z,0.48
2023-02-19T20:11:12.696Z,0.45
2023-02-19T20:13:40.394Z,0.43
2023-02-19T20:16:11.099Z,0.40
2023-02-19T20:18:38.726Z,0.40
2023-02-19T20:21:06.197Z,0.41
2023-02-19T20:23:33.915Z,0.40
2023-02-19T20:26:01.473Z,0.39
2023-02-19T20:28:29.233Z,0.39
2023-02-19T20:30:57.611Z,0.38
2023-02-19T20:33:25.393Z,0.38
2023-02-19T20:35:52.994Z,0.38
2023-02-19T20:38:20.594Z,0.37
2023-02-19T20:40:48.176Z,0.35
2023-02-19T20:43:15.651Z,0.36
2023-02-19T20:45:45.907Z,0.37
2023-02-19T20:48:13.589Z,0.36
2023-02-19T20:50:41.116Z,0.35
2023-02-19T20:53:08.758Z,0.33
2023-02-19T20:55:36.442Z,0.32
2023-02-19T20:58:03.938Z,0.31
2023-02-19T21:00:31.419Z,0.30
2023-02-19T21:02:59.212Z,0.30
2023-02-19T21:05:27.148Z,0.30
2023-02-19T21:07:55.338Z,0.30
2023-02-19T21:10:23.299Z,0.30
2023-02-19T21:12:52.348Z,0.27
2023-02-19T21:15:20.259Z,0.27
2023-02-19T21:17:48.089Z,0.26
2023-02-19T21:20:17.862Z,0.25
2023-02-19T21:22:45.459Z,0.24
2023-02-19T21:25:12.979Z,0.23
2023-02-19T21:27:40.504Z,0.22
2023-02-19T21:30:08.147Z,0.21
2023-02-19T21:32:35.733Z,0.18
2023-02-19T21:35:03.219Z,0.15
2023-02-19T21:37:30.696Z,0.11
2023-02-19T21:40:00.481Z,0.11
2023-02-19T21:42:28.293Z,0.10
2023-02-19T21:44:55.762Z,0.10
2023-02-19T21:47:23.320Z,0.11
2023-02-19T21:49:51.055Z,0.10
2023-02-19T21:52:18.592Z,0.10
2023-02-19T21:54:46.335Z,0.09
2023-02-19T21:57:13.827Z,0.12
2023-02-19T21:59:41.404Z,0.12
2023-02-19T22:02:08.957Z,0.11
2023-02-19T22:04:36.467Z,0.10
2023-02-19T22:07:03.962Z,0.10
2023-02-19T22:09:31.477Z,0.09
2023-02-19T22:11:58.968Z,0.08
2023-02-19T22:14:26.495Z,0.09
2023-02-19T22:16:54.099Z,0.07
2023-02-19T22:19:21.649Z,0.06
2023-02-19T22:21:49.179Z,0.02
2023-02-19T22:24:17.572Z,0.00
2023-02-19T22:26:45.653Z,-0.03
2023-02-19T22:29:13.300Z,-0.08
2023-02-19T22:31:41.160Z,-0.19
2023-02-19T22:34:09.117Z,-0.30
2023-02-19T22:36:40.307Z,-0.37
2023-02-19T22:39:08.116Z,-0.41
2023-02-19T22:41:36.004Z,-0.40
2023-02-19T22:44:03.526Z,-0.37
2023-02-19T22:46:31.266Z,-0.33
2023-02-19T22:48:58.808Z,-0.28
2023-02-19T22:51:26.341Z,-0.25
2023-02-19T22:53:54.083Z,-0.21
2023-02-19T22:56:22.355Z,-0.18
2023-02-19T22:58:49.880Z,-0.14
2023-02-19T23:01:17.447Z,-0.08
2023-02-19T23:03:45.023Z,-0.03
2023-02-19T23:06:12.738Z,0.03
2023-02-19T23:08:42.987Z,0.08
2023-02-19T23:11:10.644Z,0.09
2023-02-19T23:13:38.163Z,0.08
2023-02-19T23:16:06.480Z,0.08
2023-02-19T23:18:34.110Z,0.10
2023-02-19T23:21:01.607Z,0.12
2023-02-19T23:23:31.448Z,0.13
2023-02-19T23:25:58.910Z,0.14
2023-02-19T23:28:26.461Z,0.15
2023-02-19T23:30:54.354Z,0.14
2023-02-19T23:33:22.080Z,0.14
2023-02-19T23:35:49.611Z,0.13
2023-02-19T23:38:17.141Z,0.13
2023-02-19T23:40:45.356Z,0.15
2023-02-19T23:43:13.220Z,0.14
2023-02-19T23:45:40.857Z,0.11
2023-02-19T23:48:08.440Z,0.10
2023-02-19T23:50:36.045Z,0.11
2023-02-19T23:53:03.558Z,0.13
2023-02-19T23:55:31.199Z,0.14
2023-02-19T23:57:58.732Z,0.14
